createdAt,value
2023-02-13T00:01:14.692Z,286.80
2023-02-13T00:06:14.998Z,303.60
2023-02-13T00:11:13.295Z,59.00
2023-02-13T00:16:12.715Z,34.70
2023-02-13T00:21:12.857Z,49.60
2023-02-13T00:26:10.992Z,34.00
2023-02-13T00:31:11.324Z,36.20
2023-02-13T00:36:10.452Z,43.40
2023-02-13T00:41:08.724Z,44.70
2023-02-13T00:46:09.019Z,217.00
2023-02-13T00:51:07.308Z,194.30
2023-02-13T00:56:06.634Z,177.80
2023-02-13T01:01:08.933Z,163.80
2023-02-13T01:06:05.185Z,148.70
2023-02-13T01:11:04.489Z,142.50
2023-02-13T01:16:04.960Z,128.10
2023-02-13T01:21:02.941Z,120.10
2023-02-13T01:26:02.254Z,116.20
2023-02-13T01:31:03.772Z,106.90
2023-02-13T01:36:02.726Z,95.10
2023-02-13T01:41:00.163Z,88.30
2023-02-13T01:46:01.180Z,83.30
2023-02-13T01:50:58.786Z,81.50
2023-02-13T01:55:57.721Z,74.20
2023-02-13T02:00:57.268Z,70.20
2023-02-13T02:05:58.156Z,68.30
2023-02-13T02:10:55.590Z,59.90
2023-02-13T02:15:54.655Z,56.40
2023-02-13T02:20:53.773Z,53.60
2023-02-13T02:25:53.056Z,48.50
2023-02-13T02:30:53.420Z,45.70
2023-02-13T02:35:51.563Z,44.60
2023-02-13T02:40:51.873Z,42.30
2023-02-13T02:45:51.137Z,41.00
2023-02-13T02:50:49.413Z,39.10
2023-02-13T02:55:48.676Z,34.90
2023-02-13T03:00:48.051Z,35.10
2023-02-13T03:05:48.254Z,32.70
2023-02-13T03:10:46.325Z,29.50
2023-02-13T03:15:46.622Z,28.30
2023-02-13T03:20:44.928Z,27.50
2023-02-13T03:25:44.273Z,26.50
2023-02-13T03:30:44.669Z,24.10
2023-02-13T03:35:42.786Z,23.60
2023-02-13T03:40:42.003Z,23.10
2023-02-13T03:45:42.302Z,20.70
2023-02-13T03:50:41.428Z,20.90
2023-02-13T03:55:39.745Z,19.60
2023-02-13T04:00:39.072Z,18.70
2023-02-13T04:05:39.403Z,17.70
2023-02-13T04:10:37.764Z,16.90
2023-02-13T04:15:38.054Z,15.10
2023-02-13T04:20:36.387Z,15.50
2023-02-13T04:25:36.516Z,15.00
2023-02-13T04:30:34.890Z,12.80
2023-02-13T04:35:35.070Z,13.20
2023-02-13T04:40:34.191Z,12.70
2023-02-13T04:45:33.499Z,12.30
2023-02-13T04:50:31.860Z,10.80
2023-02-13T04:55:30.957Z,11.40
2023-02-13T05:00:31.288Z,11.70
2023-02-13T05:05:30.596Z,9.90
2023-02-13T05:10:28.913Z,10.40
2023-02-13T05:15:29.272Z,9.60
2023-02-13T05:20:27.382Z,9.10
2023-02-13T05:25:26.501Z,9.60
2023-02-13T05:30:25.834Z,9.00
2023-02-13T05:35:25.151Z,7.60
2023-02-13T05:40:24.466Z,8.40
2023-02-13T05:45:24.802Z,8.10
2023-02-13T05:50:23.937Z,8.00
2023-02-13T05:55:23.054Z,7.30
2023-02-13T06:00:22.371Z,7.80
2023-02-13T06:05:20.513Z,7.90
2023-02-13T06:10:19.893Z,7.10
2023-02-13T06:15:19.037Z,7.10
2023-02-13T06:20:18.350Z,7.10
2023-02-13T06:25:17.633Z,6.60
2023-02-13T06:30:17.974Z,7.00
2023-02-13T06:35:17.233Z,5.60
2023-02-13T06:40:15.534Z,5.80
2023-02-13T06:45:14.850Z,6.70
2023-02-13T06:50:15.150Z,5.70
2023-02-13T06:55:14.477Z,6.10
2023-02-13T07:00:12.772Z,5.70
2023-02-13T07:05:12.091Z,5.40
2023-02-13T07:10:11.409Z,6.70
2023-02-13T07:15:10.718Z,4.90
2023-02-13T07:20:11.010Z,5.40
2023-02-13T07:25:11.350Z,5.00
2023-02-13T07:30:08.476Z,5.50
2023-02-13T07:35:07.641Z,5.40
2023-02-13T07:40:08.792Z,5.70
2023-02-13T07:45:07.117Z,5.40
2023-02-13T07:50:05.239Z,5.40
2023-02-13T07:55:05.426Z,4.90
2023-02-13T08:00:04.568Z,5.40
2023-02-13T08:05:01.923Z,5.00
2023-02-13T08:10:02.069Z,5.50
2023-02-13T08:15:01.389Z,5.10
2023-02-13T08:20:00.688Z,4.30
2023-02-13T08:24:59.980Z,5.90
2023-02-13T08:29:59.259Z,5.40
2023-02-13T08:34:58.542Z,5.50
2023-02-13T08:40:00.874Z,5.10
2023-02-13T08:44:58.741Z,4.70
2023-02-13T08:49:58.288Z,5.80
2023-02-13T08:54:55.572Z,12.90
2023-02-13T08:59:55.911Z,17.20
2023-02-13T09:04:54.171Z,14.00
2023-02-13T09:09:53.492Z,12.60
2023-02-13T09:14:52.772Z,15.80
2023-02-13T09:19:52.119Z,15.50
2023-02-13T09:24:51.422Z,12.50
2023-02-13T09:29:50.772Z,12.20
2023-02-13T09:34:50.906Z,10.20
2023-02-13T09:39:50.200Z,12.20
2023-02-13T09:44:48.498Z,11.20
2023-02-13T09:49:47.792Z,10.10
2023-02-13T09:54:47.091Z,10.10
2023-02-13T09:59:47.397Z,10.50
2023-02-13T10:04:47.728Z,9.00
2023-02-13T10:09:45.061Z,10.40
2023-02-13T10:14:44.215Z,8.60
2023-02-13T10:19:43.593Z,8.20
2023-02-13T10:24:44.710Z,9.10
2023-02-13T10:29:42.042Z,8.00
2023-02-13T10:34:41.157Z,7.90
2023-02-13T10:39:41.485Z,8.60
2023-02-13T10:44:39.790Z,7.80
2023-02-13T10:49:40.084Z,6.70
2023-02-13T10:54:38.395Z,7.10
2023-02-13T10:59:37.722Z,8.10
2023-02-13T11:04:37.888Z,6.50
2023-02-13T11:09:36.021Z,7.40
2023-02-13T11:14:35.153Z,7.20
2023-02-13T11:19:35.482Z,7.10
2023-02-13T11:24:34.799Z,6.30
2023-02-13T11:29:37.276Z,7.20
2023-02-13T11:34:32.335Z,6.80
2023-02-13T11:39:32.645Z,6.20
2023-02-13T11:44:31.956Z,6.30
2023-02-13T11:49:30.285Z,6.40
2023-02-13T11:54:29.619Z,7.00
2023-02-13T11:59:28.951Z,6.80
2023-02-13T12:04:28.272Z,6.20
2023-02-13T12:09:28.609Z,6.30
2023-02-13T12:14:27.743Z,5.70
2023-02-13T12:19:26.042Z,5.80
2023-02-13T12:24:26.344Z,6.00
2023-02-13T12:29:25.754Z,6.10
2023-02-13T12:34:23.916Z,5.60
2023-02-13T12:39:23.045Z,6.50
2023-02-13T12:44:22.230Z,6.40
2023-02-13T12:49:22.397Z,5.50
2023-02-13T12:54:20.481Z,5.10
2023-02-13T12:59:19.801Z,4.80
2023-02-13T13:04:19.099Z,5.80
2023-02-13T13:09:18.421Z,5.50
2023-02-13T13:14:18.742Z,6.40
2023-02-13T13:19:17.114Z,5.80
2023-02-13T13:24:16.225Z,5.90
2023-02-13T13:29:16.542Z,6.50
2023-02-13T13:34:15.898Z,5.70
2023-02-13T13:39:16.032Z,6.10
2023-02-13T13:44:14.353Z,5.80
2023-02-13T13:49:12.721Z,5.10
2023-02-13T13:54:11.880Z,5.80
2023-02-13T13:59:11.045Z,5.90
2023-02-13T14:04:10.206Z,4.50
2023-02-13T14:09:09.354Z,6.00
2023-02-13T14:14:08.512Z,4.40
2023-02-13T14:19:08.836Z,5.50
2023-02-13T14:24:07.161Z,6.30
2023-02-13T14:29:07.482Z,6.40
2023-02-13T14:34:07.841Z,6.90
2023-02-13T14:39:04.980Z,4.30
2023-02-13T14:44:04.094Z,4.30
2023-02-13T14:49:03.446Z,5.00
2023-02-13T14:54:01.617Z,4.90
2023-02-13T14:59:01.743Z,4.40
2023-02-13T15:04:01.245Z,4.80
2023-02-13T15:09:01.627Z,3.90
2023-02-13T15:13:59.697Z,3.80
2023-02-13T15:18:58.821Z,3.70
2023-02-13T15:23:58.157Z,4.30
2023-02-13T15:28:57.476Z,3.60
2023-02-13T15:33:57.996Z,3.80
2023-02-13T15:38:56.121Z,3.70
2023-02-13T15:43:56.438Z,4.70
2023-02-13T15:48:59.363Z,4.80
2023-02-13T15:53:53.916Z,4.80
2023-02-13T15:58:53.259Z,4.10
2023-02-13T16:03:52.382Z,5.10
2023-02-13T16:08:51.698Z,3.40
2023-02-13T16:13:52.026Z,4.80
2023-02-13T16:18:50.677Z,4.10
2023-02-13T16:23:49.998Z,4.10
2023-02-13T16:28:49.088Z,3.50
2023-02-13T16:33:49.431Z,4.40
2023-02-13T16:38:48.749Z,3.40
2023-02-13T16:43:47.141Z,3.80
2023-02-13T16:48:47.984Z,4.00
2023-02-13T16:53:44.101Z,4.20
2023-02-13T16:58:44.728Z,4.60
2023-02-13T17:03:43.113Z,4.10
2023-02-13T17:08:44.173Z,4.80
2023-02-13T17:13:43.386Z,3.80
2023-02-13T17:18:42.665Z,4.00
2023-02-13T17:23:40.971Z,4.00
2023-02-13T17:28:41.145Z,4.00
2023-02-13T17:33:43.184Z,4.30
2023-02-13T17:38:38.641Z,4.10
2023-02-13T17:43:38.621Z,4.10
2023-02-13T17:48:38.233Z,4.80
2023-02-13T17:53:37.482Z,3.80
2023-02-13T17:58:35.758Z,4.50
2023-02-13T18:03:36.891Z,3.70
2023-02-13T18:08:34.137Z,4.30
2023-02-13T18:13:34.450Z,3.80
2023-02-13T18:18:32.783Z,3.20
2023-02-13T18:23:32.741Z,5.40
2023-02-13T18:28:32.425Z,4.50
2023-02-13T18:33:31.240Z,5.70
2023-02-13T18:38:33.625Z,6.30
2023-02-13T18:43:33.692Z,5.70
2023-02-13T18:48:28.230Z,5.30
2023-02-13T18:53:28.472Z,5.60
2023-02-13T18:58:26.668Z,5.70
2023-02-13T19:03:25.527Z,7.00
2023-02-13T19:08:24.747Z,5.50
2023-02-13T19:13:24.274Z,6.10
2023-02-13T19:18:25.523Z,5.30
2023-02-13T19:23:25.921Z,5.90
2023-02-13T19:28:22.945Z,6.00
2023-02-13T19:33:21.159Z,5.90
2023-02-13T19:38:21.591Z,6.70
2023-02-13T19:43:18.576Z,5.70
2023-02-13T19:48:19.856Z,5.20
2023-02-13T19:53:19.057Z,6.90
2023-02-13T19:58:18.311Z,7.20
2023-02-13T20:03:16.265Z,6.60
2023-02-13T20:08:15.853Z,9.20
2023-02-13T20:13:15.194Z,8.50
2023-02-13T20:18:14.284Z,159.80
2023-02-13T20:23:14.578Z,230.30
2023-02-13T20:28:13.442Z,156.30
2023-02-13T20:33:13.543Z,138.20
2023-02-13T20:38:10.820Z,118.90
2023-02-13T20:43:11.403Z,108.10
2023-02-13T20:48:09.610Z,186.40
2023-02-13T20:53:09.838Z,258.70
2023-02-13T20:58:10.107Z,218.30
2023-02-13T21:03:07.505Z,172.20
2023-02-13T21:08:06.365Z,164.30
2023-02-13T21:13:06.878Z,145.60
2023-02-13T21:18:10.061Z,129.60
2023-02-13T21:23:04.374Z,115.90
2023-02-13T21:28:04.151Z,68.20
2023-02-13T21:33:06.305Z,70.10
2023-02-13T21:38:01.990Z,118.60
2023-02-13T21:43:01.107Z,107.70
2023-02-13T21:48:01.274Z,189.30
2023-02-13T21:53:02.485Z,118.50
2023-02-13T21:57:58.669Z,101.30
2023-02-13T22:02:58.003Z,81.70
2023-02-13T22:07:58.071Z,105.60
2023-02-13T22:12:57.196Z,120.60
2023-02-13T22:17:55.504Z,94.10
2023-02-13T22:22:54.825Z,84.80
2023-02-13T22:27:55.158Z,84.40
2023-02-13T22:32:53.459Z,100.60
2023-02-13T22:37:52.803Z,96.10
2023-02-13T22:42:53.116Z,81.10
2023-02-13T22:47:52.263Z,86.30
2023-02-13T22:52:50.356Z,101.30
2023-02-13T22:57:49.666Z,181.00
2023-02-13T23:02:49.051Z,290.90
2023-02-13T23:07:48.169Z,243.50
2023-02-13T23:12:48.485Z,222.00
2023-02-13T23:17:46.789Z,353.80
2023-02-13T23:22:46.077Z,333.80
2023-02-13T23:27:45.345Z,285.70
2023-02-13T23:32:44.653Z,245.40
2023-02-13T23:37:45.976Z,228.30
2023-02-13T23:42:44.284Z,196.20
2023-02-13T23:47:43.614Z,172.80
2023-02-13T23:52:41.943Z,239.90
2023-02-13T23:57:41.277Z,327.50
